Time;durP1;ratioP1;P1;durP2;ratioP2;P2;SDS_P1;SDS_P2;PMS_P1;PMS_P2;Temp;Humidity;BMP_temperature;BMP_pressure;BME280_temperature;BME280_humidity;BME280_pressure;Samples;Min_cycle;Max_cycle;Signal;HPM_P1;HPM_P2
2021/09/07 00:01:14;;;;;;;13.75;7.20;;;;;;;6.43;71.90;101991.85;1747447;82;21382;-57
2021/09/07 00:04:28;;;;;;;14.23;6.60;;;;;;;6.45;71.84;101995.81;1747667;80;21777;-59
2021/09/07 00:07:29;;;;;;;15.48;6.75;;;;;;;6.42;71.82;101999.64;1747504;82;21347;-59
2021/09/07 00:10:37;;;;;;;12.68;7.47;;;;;;;6.43;71.87;102000.02;1743570;81;22031;-58
2021/09/07 00:13:44;;;;;;;13.32;6.92;;;;;;;6.43;71.77;102003.21;1737455;81;21742;-59
2021/09/07 00:16:50;;;;;;;14.07;6.78;;;;;;;6.40;71.62;102009.75;1737462;82;21703;-58
2021/09/07 00:19:56;;;;;;;12.23;6.17;;;;;;;6.38;71.78;102008.98;1737618;81;21237;-58
2021/09/07 00:23:02;;;;;;;15.20;7.55;;;;;;;6.37;71.82;102015.42;1727388;82;21667;-57
2021/09/07 00:26:09;;;;;;;13.32;7.12;;;;;;;6.37;71.71;102009.98;1696465;84;21764;-57
2021/09/07 00:29:14;;;;;;;12.68;6.65;;;;;;;6.36;71.54;102009.58;1698361;83;21238;-57
2021/09/07 00:32:20;;;;;;;11.53;6.53;;;;;;;6.26;71.21;102015.31;1693361;83;21793;-57
2021/09/07 00:35:27;;;;;;;11.95;6.25;;;;;;;6.14;71.20;102017.52;1720825;82;21806;-57
2021/09/07 00:38:32;;;;;;;11.40;5.95;;;;;;;6.01;71.35;102015.27;1720976;83;21218;-58
2021/09/07 00:41:39;;;;;;;11.65;6.20;;;;;;;5.89;71.57;102027.88;1756116;81;21229;-59
2021/09/07 00:44:45;;;;;;;10.55;5.75;;;;;;;5.83;72.03;102024.23;1756012;80;21378;-58
2021/09/07 00:47:52;;;;;;;15.32;6.40;;;;;;;5.81;72.07;102025.27;1748041;82;21303;-58
2021/09/07 00:50:59;;;;;;;13.60;6.10;;;;;;;5.80;72.23;102024.89;1735664;80;21351;-58
2021/09/07 00:54:06;;;;;;;10.68;5.87;;;;;;;5.77;72.42;102023.23;1734457;81;21864;-58
2021/09/07 00:57:16;;;;;;;10.85;5.85;;;;;;;5.80;72.59;102026.25;1737463;82;21237;-58
2021/09/07 01:00:22;;;;;;;9.40;5.60;;;;;;;5.78;72.52;102026.36;1737243;81;21351;-58
2021/09/07 01:03:29;;;;;;;12.45;6.15;;;;;;;5.79;72.66;102024.48;1738554;81;21212;-58
2021/09/07 01:06:36;;;;;;;10.40;6.08;;;;;;;5.84;72.64;102027.80;1739950;80;21715;-58
2021/09/07 01:09:46;;;;;;;11.53;6.37;;;;;;;5.87;72.46;102031.19;1753794;80;21405;-58
2021/09/07 01:12:52;;;;;;;11.03;5.53;;;;;;;5.88;72.33;102026.63;1758132;81;21776;-57
2021/09/07 01:15:59;;;;;;;13.58;5.90;;;;;;;5.87;72.25;102031.66;1762955;79;21259;-57
2021/09/07 01:19:06;;;;;;;10.00;5.10;;;;;;;5.85;72.16;102027.70;1753777;80;21200;-58
2021/09/07 01:22:11;;;;;;;11.93;5.87;;;;;;;5.85;72.21;102029.56;1746549;81;21327;-58
2021/09/07 01:25:17;;;;;;;10.03;5.55;;;;;;;5.80;72.03;102029.82;1732912;81;21314;-58
2021/09/07 01:28:24;;;;;;;10.95;5.58;;;;;;;5.74;72.10;102029.39;1676217;83;21310;-58
2021/09/07 01:31:31;;;;;;;11.20;5.62;;;;;;;5.66;72.19;102027.69;1720903;83;21219;-57
2021/09/07 01:34:38;;;;;;;8.83;5.10;;;;;;;5.60;72.30;102035.75;1668847;85;21872;-58
2021/09/07 01:37:48;;;;;;;11.00;5.20;;;;;;;5.53;72.56;102034.44;1697934;84;21809;-57
2021/09/07 01:40:54;;;;;;;9.73;5.03;;;;;;;5.50;72.82;102035.98;1696142;83;21790;-57
2021/09/07 01:44:02;;;;;;;9.75;6.20;;;;;;;5.48;73.08;102026.20;1696329;83;22065;-58
2021/09/07 01:47:09;;;;;;;8.98;5.67;;;;;;;5.51;73.26;102027.35;1696290;84;21211;-58
2021/09/07 01:50:17;;;;;;;10.15;5.37;;;;;;;5.51;73.28;102028.71;1696274;83;21309;-58
2021/09/07 01:53:23;;;;;;;10.30;4.97;;;;;;;5.56;73.37;102036.06;1696239;84;21223;-58
2021/09/07 01:56:30;;;;;;;11.12;5.78;;;;;;;5.56;73.33;102040.14;1696278;84;21270;-58
2021/09/07 01:59:36;;;;;;;10.98;5.75;;;;;;;5.60;73.43;102044.38;1696292;83;21246;-57
2021/09/07 02:02:43;;;;;;;11.70;5.40;;;;;;;5.61;73.31;102042.91;1696239;84;21278;-57
2021/09/07 02:05:50;;;;;;;9.10;5.33;;;;;;;5.59;73.15;102041.29;1696328;83;21243;-57
2021/09/07 02:08:58;;;;;;;11.40;5.45;;;;;;;5.52;73.07;102035.40;1696193;83;21254;-57
2021/09/07 02:12:06;;;;;;;10.85;5.37;;;;;;;5.46;73.17;102041.25;1696270;84;21239;-57
2021/09/07 02:15:13;;;;;;;10.78;5.45;;;;;;;5.43;73.29;102041.45;1694201;83;21233;-58
2021/09/07 02:18:18;;;;;;;8.80;4.55;;;;;;;5.45;73.46;102038.16;1683857;83;21281;-58
2021/09/07 02:21:25;;;;;;;10.00;5.62;;;;;;;5.51;73.43;102044.53;1697010;83;21529;-58
2021/09/07 02:24:33;;;;;;;8.70;4.78;;;;;;;5.55;73.31;102047.92;1768515;81;21359;-58
2021/09/07 02:27:39;;;;;;;11.78;5.12;;;;;;;5.56;73.10;102042.38;1769182;80;21257;-58
2021/09/07 02:30:48;;;;;;;9.53;5.50;;;;;;;5.58;72.98;102049.07;1769257;80;21220;-57
2021/09/07 02:33:55;;;;;;;9.50;5.35;;;;;;;5.55;72.80;102051.48;1742786;82;21330;-57
2021/09/07 02:37:00;;;;;;;9.75;5.20;;;;;;;5.53;72.80;102045.78;1745289;82;21341;-58
2021/09/07 02:40:06;;;;;;;9.58;5.15;;;;;;;5.50;72.85;102048.71;1745119;82;21367;-58
2021/09/07 02:43:13;;;;;;;8.78;4.92;;;;;;;5.48;72.83;102050.17;1694389;84;21209;-57
2021/09/07 02:46:21;;;;;;;9.38;5.53;;;;;;;5.44;72.67;102059.48;1694613;84;21395;-58
2021/09/07 02:49:26;;;;;;;11.10;5.30;;;;;;;5.36;72.63;102055.05;1768990;81;21939;-58
2021/09/07 02:52:33;;;;;;;9.15;5.50;;;;;;;5.29;72.74;102066.42;1768872;80;21204;-58
2021/09/07 02:55:39;;;;;;;9.83;5.53;;;;;;;5.19;72.97;102064.80;1768977;80;21216;-59
2021/09/07 02:58:45;;;;;;;10.23;5.58;;;;;;;5.21;73.45;102064.70;1768881;80;21201;-58
2021/09/07 03:01:52;;;;;;;10.30;5.05;;;;;;;5.26;73.61;102072.94;1752797;81;21404;-58
2021/09/07 03:05:01;;;;;;;9.25;4.87;;;;;;;5.31;73.48;102075.34;1775553;80;21365;-59
2021/09/07 03:08:09;;;;;;;10.50;5.47;;;;;;;5.35;73.33;102074.16;1768837;81;21414;-58
2021/09/07 03:11:14;;;;;;;14.40;6.28;;;;;;;5.36;73.10;102071.84;1777363;80;21188;-56
2021/09/07 03:14:21;;;;;;;11.83;5.83;;;;;;;5.37;72.92;102077.17;1768648;79;21249;-57
2021/09/07 03:17:29;;;;;;;11.00;5.55;;;;;;;5.36;72.75;102076.77;1747977;81;21329;-57
2021/09/07 03:20:35;;;;;;;11.90;5.42;;;;;;;5.32;72.46;102080.67;1682412;84;21212;-57
2021/09/07 03:23:43;;;;;;;10.95;5.50;;;;;;;5.24;72.38;102087.09;1760477;80;21261;-58
2021/09/07 03:26:50;;;;;;;11.85;5.47;;;;;;;5.16;72.40;102084.00;1737554;81;21212;-56
2021/09/07 03:29:55;;;;;;;12.78;6.17;;;;;;;5.11;72.65;102083.42;1757694;80;21359;-57
2021/09/07 03:33:01;;;;;;;10.80;5.67;;;;;;;5.08;72.82;102094.48;1748287;80;21199;-57
2021/09/07 03:36:07;;;;;;;12.40;6.25;;;;;;;5.06;72.95;102092.34;1707825;83;21751;-57
2021/09/07 03:39:14;;;;;;;13.08;6.22;;;;;;;5.06;73.11;102092.34;1696977;83;21736;-57
2021/09/07 03:42:20;;;;;;;15.78;5.90;;;;;;;5.07;73.31;102098.19;1726698;82;21386;-56
2021/09/07 03:45:28;;;;;;;17.85;6.37;;;;;;;5.11;73.74;102101.55;1725334;82;21798;-57
2021/09/07 03:48:37;;;;;;;15.88;6.72;;;;;;;5.20;73.93;102098.25;1729366;81;21932;-57
2021/09/07 03:51:42;;;;;;;15.85;7.17;;;;;;;5.31;73.93;102104.70;1725331;82;21325;-56
2021/09/07 03:54:47;;;;;;;12.20;5.83;;;;;;;5.41;73.73;102100.90;1726130;81;21234;-56
2021/09/07 03:57:55;;;;;;;15.98;6.17;;;;;;;5.47;73.65;102096.45;1726342;81;21198;-56
2021/09/07 04:01:01;;;;;;;16.70;6.85;;;;;;;5.55;73.49;102094.09;1740847;81;21241;-57
2021/09/07 04:04:10;;;;;;;25.30;10.78;;;;;;;5.60;73.52;102103.66;1763812;79;21409;-56
2021/09/07 04:07:19;;;;;;;28.17;12.58;;;;;;;5.69;73.46;102108.48;1792079;79;21367;-57
2021/09/07 04:10:26;;;;;;;26.77;11.90;;;;;;;5.75;73.56;102107.20;1787437;79;21343;-56
2021/09/07 04:13:34;;;;;;;23.67;11.93;;;;;;;5.84;74.00;102106.61;1784529;79;21260;-56
2021/09/07 04:16:42;;;;;;;27.13;11.05;;;;;;;5.99;74.48;102110.52;1798200;79;21371;-56
2021/09/07 04:19:47;;;;;;;21.85;10.20;;;;;;;6.10;74.79;102105.72;1786540;78;21260;-56
2021/09/07 04:22:53;;;;;;;18.95;9.95;;;;;;;6.20;75.10;102107.32;1801109;79;21840;-56
2021/09/07 04:25:58;;;;;;;23.65;9.73;;;;;;;6.31;75.43;102108.30;1767961;80;21252;-57
2021/09/07 04:29:04;;;;;;;21.33;9.78;;;;;;;6.43;75.60;102107.45;1775080;79;21422;-56
2021/09/07 04:32:11;;;;;;;24.75;10.13;;;;;;;6.57;75.73;102115.52;1759619;80;21904;-56
2021/09/07 04:35:16;;;;;;;27.73;9.45;;;;;;;6.66;75.66;102114.86;1769106;79;21390;-57
2021/09/07 04:38:22;;;;;;;21.33;11.03;;;;;;;6.77;75.79;102127.21;1755397;81;21716;-57
2021/09/07 04:41:28;;;;;;;24.32;9.95;;;;;;;6.91;75.79;102120.80;1753264;81;21234;-57
2021/09/07 04:44:35;;;;;;;23.42;9.43;;;;;;;7.05;75.72;102115.23;1780754;79;21723;-57
2021/09/07 04:47:41;;;;;;;16.97;9.03;;;;;;;7.19;75.63;102118.70;1737930;82;21770;-57
2021/09/07 04:50:46;;;;;;;26.17;9.53;;;;;;;7.34;75.33;102123.00;1790061;79;21382;-57
2021/09/07 04:53:53;;;;;;;21.90;9.85;;;;;;;7.47;74.90;102121.13;1786642;79;21251;-55
2021/09/07 04:56:58;;;;;;;18.50;9.73;;;;;;;7.61;74.48;102118.23;1737684;82;21184;-56
2021/09/07 05:00:04;;;;;;;25.00;11.25;;;;;;;7.74;74.09;102114.61;1763269;79;21248;-57
2021/09/07 05:03:10;;;;;;;24.77;12.40;;;;;;;7.88;73.77;102123.97;1776496;80;21169;-56
2021/09/07 05:06:16;;;;;;;23.98;12.00;;;;;;;8.01;73.33;102120.19;1705448;82;21216;-56
2021/09/07 05:09:21;;;;;;;25.23;13.13;;;;;;;8.14;72.88;102122.84;1736393;82;21261;-57
2021/09/07 05:12:27;;;;;;;26.68;13.48;;;;;;;8.26;72.41;102123.30;1735361;82;21188;-57
2021/09/07 05:15:34;;;;;;;28.47;13.13;;;;;;;8.37;71.99;102124.71;1750681;81;21213;-56
2021/09/07 05:18:41;;;;;;;21.70;11.97;;;;;;;8.50;71.52;102124.98;1750410;81;21189;-56
2021/09/07 05:21:48;;;;;;;27.82;12.53;;;;;;;8.62;71.16;102117.70;1747784;81;21193;-56
2021/09/07 05:24:53;;;;;;;18.73;10.88;;;;;;;8.74;70.85;102120.33;1739001;81;21260;-56
2021/09/07 05:28:00;;;;;;;19.35;11.20;;;;;;;8.87;70.60;102122.45;1754680;81;22040;-58
2021/09/07 05:31:05;;;;;;;18.07;11.18;;;;;;;9.02;70.18;102121.73;1750704;81;21233;-56
2021/09/07 05:34:10;;;;;;;16.45;10.40;;;;;;;9.16;69.88;102121.48;1749682;81;21212;-57
2021/09/07 05:37:16;;;;;;;24.70;9.78;;;;;;;9.28;69.64;102124.56;1698520;84;21191;-55
2021/09/07 05:40:22;;;;;;;20.17;10.48;;;;;;;9.42;69.48;102120.20;1700093;84;21191;-56
2021/09/07 05:43:28;;;;;;;19.17;10.40;;;;;;;9.57;69.12;102121.69;1720711;83;21807;-56
2021/09/07 05:46:34;;;;;;;21.40;10.78;;;;;;;9.70;68.88;102119.67;1711315;83;21710;-56
2021/09/07 05:49:40;;;;;;;24.85;11.45;;;;;;;9.84;68.68;102123.48;1726341;81;21714;-56
2021/09/07 05:52:46;;;;;;;16.73;9.73;;;;;;;9.99;68.14;102119.45;1725695;83;21335;-57
2021/09/07 05:55:51;;;;;;;17.92;9.48;;;;;;;10.12;67.42;102125.66;1726764;81;21387;-57
2021/09/07 05:58:59;;;;;;;14.33;8.45;;;;;;;10.26;66.98;102123.97;1749427;80;21664;-56
2021/09/07 06:02:05;;;;;;;15.48;7.85;;;;;;;10.41;66.76;102130.88;1756378;81;21256;-56
2021/09/07 06:05:11;;;;;;;17.67;7.70;;;;;;;10.58;66.22;102125.30;1747912;81;21872;-56
2021/09/07 06:08:18;;;;;;;12.37;7.00;;;;;;;10.76;65.97;102131.04;1745378;81;21244;-56
2021/09/07 06:11:24;;;;;;;17.07;6.15;;;;;;;10.93;65.69;102129.92;1696828;84;21339;-55
2021/09/07 06:14:35;;;;;;;11.68;5.28;;;;;;;11.11;65.70;102126.05;1723777;80;21219;-55
2021/09/07 06:17:38;;;;;;;9.95;5.42;;;;;;;11.24;65.12;102126.17;1746518;80;21220;-56
2021/09/07 06:20:50;;;;;;;6.62;4.75;;;;;;;11.37;64.30;102129.55;1749480;79;21254;-54
2021/09/07 06:24:02;;;;;;;7.87;3.95;;;;;;;11.49;63.85;102129.84;1752522;82;21274;-56
2021/09/07 06:27:15;;;;;;;8.83;4.55;;;;;;;11.62;63.17;102133.70;1758236;81;21712;-55
2021/09/07 06:30:45;;;;;;;9.78;4.50;;;;;;;11.73;62.59;102128.97;1729113;81;21484;-56
2021/09/07 06:33:55;;;;;;;7.25;3.90;;;;;;;11.86;62.43;102137.82;1756573;81;21351;-55
2021/09/07 06:37:05;;;;;;;8.13;3.85;;;;;;;12.02;61.93;102145.50;1765095;81;21177;-57
2021/09/07 06:40:27;;;;;;;12.35;4.17;;;;;;;12.17;61.21;102145.45;1729663;81;21546;-57
2021/09/07 06:43:47;;;;;;;9.10;4.00;;;;;;;12.28;60.41;102143.95;1758739;80;21237;-56
2021/09/07 06:46:56;;;;;;;7.28;3.22;;;;;;;12.44;59.68;102140.12;1698193;84;21199;-56
2021/09/07 06:50:04;;;;;;;5.67;3.42;;;;;;;12.57;59.00;102141.20;1702551;83;21237;-56
2021/09/07 06:53:11;;;;;;;10.82;3.62;;;;;;;12.70;58.62;102140.39;1771613;80;21339;-56
2021/09/07 06:56:17;;;;;;;5.05;2.50;;;;;;;12.82;58.11;102146.08;1768407;81;21190;-56
2021/09/07 06:59:24;;;;;;;5.85;2.60;;;;;;;12.93;57.49;102144.03;1781070;79;21371;-57
2021/09/07 07:02:30;;;;;;;5.22;2.72;;;;;;;13.03;56.46;102144.89;1760619;80;21699;-57
2021/09/07 07:05:35;;;;;;;8.13;2.80;;;;;;;13.15;55.21;102146.47;1759891;81;21703;-56
2021/09/07 07:08:41;;;;;;;10.58;2.30;;;;;;;13.28;54.71;102146.13;1776670;80;21343;-57
2021/09/07 07:11:48;;;;;;;3.85;1.90;;;;;;;13.40;54.03;102149.92;1774558;81;21196;-57
2021/09/07 07:14:54;;;;;;;3.40;2.05;;;;;;;13.50;53.11;102149.88;1749428;81;21672;-57
2021/09/07 07:17:59;;;;;;;3.95;2.20;;;;;;;13.61;52.39;102151.55;1755935;81;21273;-57
2021/09/07 07:21:05;;;;;;;3.98;2.00;;;;;;;13.70;52.02;102151.50;1729760;82;21839;-56
2021/09/07 07:24:10;;;;;;;5.00;2.60;;;;;;;13.79;52.04;102150.61;1738170;80;21502;-56
2021/09/07 07:27:16;;;;;;;7.00;2.20;;;;;;;13.91;51.19;102158.13;1744769;80;22329;-56
2021/09/07 07:30:22;;;;;;;4.05;1.90;;;;;;;13.98;50.86;102158.75;1739707;80;21234;-57
2021/09/07 07:33:28;;;;;;;5.67;2.08;;;;;;;14.07;50.42;102155.56;1698961;83;21184;-55
2021/09/07 07:36:34;;;;;;;4.05;2.20;;;;;;;14.15;50.11;102158.41;1711004;81;21256;-56
2021/09/07 07:39:40;;;;;;;4.37;2.25;;;;;;;14.25;49.72;102157.87;1752572;80;21266;-56
2021/09/07 07:42:46;;;;;;;3.52;2.10;;;;;;;14.33;49.66;102153.81;1754239;81;21200;-55
2021/09/07 07:45:54;;;;;;;4.70;2.62;;;;;;;14.43;49.63;102155.46;1778450;79;21182;-56
2021/09/07 07:49:01;;;;;;;6.03;2.10;;;;;;;14.55;49.29;102156.09;1786862;79;21233;-57
2021/09/07 07:52:06;;;;;;;3.33;2.17;;;;;;;14.62;47.85;102158.55;1756841;79;21231;-56
2021/09/07 07:55:11;;;;;;;3.17;1.80;;;;;;;14.70;47.58;102155.37;1719715;82;21242;-56
2021/09/07 07:58:16;;;;;;;5.35;1.80;;;;;;;14.81;47.19;102158.38;1709619;82;21182;-56
2021/09/07 08:01:23;;;;;;;3.52;2.17;;;;;;;14.92;45.98;102157.61;1721127;81;21212;-56
2021/09/07 08:04:30;;;;;;;4.33;2.12;;;;;;;15.05;45.89;102158.56;1683135;85;21236;-56
2021/09/07 08:07:38;;;;;;;3.02;1.67;;;;;;;15.13;45.64;102166.05;1731694;82;21287;-55
2021/09/07 08:10:44;;;;;;;3.70;1.80;;;;;;;15.18;45.23;102155.37;1762388;79;21333;-57
2021/09/07 08:13:51;;;;;;;5.03;1.85;;;;;;;15.17;44.97;102161.42;1775399;79;21834;-56
2021/09/07 08:16:58;;;;;;;2.80;1.65;;;;;;;15.18;44.86;102164.53;1709292;82;21187;-56
2021/09/07 08:20:03;;;;;;;3.95;1.90;;;;;;;15.21;44.66;102159.18;1722126;81;21271;-57
2021/09/07 08:23:08;;;;;;;4.17;1.75;;;;;;;15.26;44.55;102158.19;1736397;81;21733;-56
2021/09/07 08:26:13;;;;;;;4.87;2.37;;;;;;;15.31;44.50;102158.06;1797658;79;21227;-57
2021/09/07 08:29:18;;;;;;;6.12;2.27;;;;;;;15.38;43.70;102152.76;1771077;79;21773;-56
2021/09/07 08:32:22;;;;;;;5.95;2.45;;;;;;;15.41;43.53;102155.22;1762198;80;21174;-57
2021/09/07 08:35:29;;;;;;;3.77;2.02;;;;;;;15.46;43.55;102153.69;1713646;82;21228;-56
2021/09/07 08:38:34;;;;;;;4.08;2.15;;;;;;;15.55;43.46;102148.58;1799938;79;21327;-55
2021/09/07 08:41:40;;;;;;;5.33;2.05;;;;;;;15.60;43.15;102154.44;1768610;80;21240;-56
2021/09/07 08:44:51;;;;;;;5.45;2.70;;;;;;;15.61;42.92;102147.91;1803213;78;21672;-57
2021/09/07 08:47:57;;;;;;;4.50;1.90;;;;;;;15.70;43.34;102148.79;1768919;80;21189;-56
2021/09/07 08:51:03;;;;;;;3.92;2.12;;;;;;;15.83;42.62;102142.29;1769234;79;21208;-56
2021/09/07 08:54:09;;;;;;;5.50;1.90;;;;;;;15.98;41.98;102144.23;1770092;79;21723;-56
2021/09/07 08:57:15;;;;;;;5.65;1.77;;;;;;;16.12;41.60;102133.94;1733211;82;21180;-57
2021/09/07 09:00:21;;;;;;;3.70;2.15;;;;;;;16.25;41.09;102137.05;1715565;82;21405;-57
2021/09/07 09:03:27;;;;;;;3.45;1.90;;;;;;;16.29;40.60;102126.02;1713324;82;21193;-57
2021/09/07 09:06:33;;;;;;;5.08;1.95;;;;;;;16.30;40.64;102124.98;1736598;82;21194;-56
2021/09/07 09:09:49;;;;;;;4.15;1.87;;;;;;;16.43;40.34;102123.96;1746353;80;21225;-57
2021/09/07 09:12:55;;;;;;;4.70;2.70;;;;;;;16.60;40.26;102119.86;1736342;82;21222;-56
2021/09/07 09:16:12;;;;;;;5.50;2.27;;;;;;;16.76;39.54;102119.86;1770758;81;21204;-57
2021/09/07 09:19:18;;;;;;;4.60;1.90;;;;;;;16.85;39.04;102121.58;1772640;79;21200;-56
2021/09/07 09:22:23;;;;;;;3.47;1.80;;;;;;;16.93;39.23;102114.65;1770638;81;21935;-57
2021/09/07 09:25:36;;;;;;;6.00;2.00;;;;;;;16.97;39.09;102116.01;1773632;79;21231;-58
2021/09/07 09:28:42;;;;;;;7.60;2.00;;;;;;;16.98;39.05;102108.91;1783639;80;21152;-58
2021/09/07 09:32:16;;;;;;;4.78;2.33;;;;;;;17.08;38.65;102100.42;1772528;81;21208;-57
2021/09/07 09:35:21;;;;;;;4.53;2.30;;;;;;;17.20;37.93;102109.59;1793204;79;21362;-57
2021/09/07 09:38:28;;;;;;;3.72;1.85;;;;;;;17.33;37.90;102108.49;1753776;80;21746;-56
2021/09/07 09:41:34;;;;;;;4.37;2.20;;;;;;;17.41;37.79;102112.63;1729034;82;21346;-57
2021/09/07 09:44:42;;;;;;;5.37;2.20;;;;;;;17.53;37.90;102114.53;1707150;82;21212;-56
2021/09/07 09:47:55;;;;;;;4.05;1.90;;;;;;;17.65;37.78;102115.84;1739407;82;21359;-56
2021/09/07 09:51:01;;;;;;;;;;;;;;;17.76;37.84;102106.62;1740581;80;21938;-57
2021/09/07 09:54:08;;;;;;;3.80;1.90;;;;;;;17.83;37.42;102114.58;1721274;81;20297;-58
2021/09/07 09:57:14;;;;;;;5.45;1.82;;;;;;;17.84;36.56;102107.10;1775236;79;21252;-57
2021/09/07 10:00:23;;;;;;;5.45;1.70;;;;;;;17.90;37.00;102111.40;1780789;79;21714;-60
2021/09/07 10:03:29;;;;;;;4.33;2.00;;;;;;;18.06;36.78;102103.51;1784310;80;21762;-58
2021/09/07 10:06:36;;;;;;;2.65;1.70;;;;;;;18.24;36.13;102099.94;1808281;79;21346;-61
2021/09/07 10:09:41;;;;;;;3.30;1.90;;;;;;;18.35;35.67;102099.50;1795999;79;21263;-59
2021/09/07 10:12:55;;;;;;;4.15;1.82;;;;;;;18.37;34.93;102104.87;1763393;81;21161;-63
2021/09/07 10:16:08;;;;;;;3.87;1.70;;;;;;;18.37;35.00;102100.70;1763659;80;21202;-62
2021/09/07 10:19:11;;;;;;;4.03;2.10;;;;;;;18.41;34.94;102099.34;1766794;79;21213;-61
2021/09/07 10:23:11;;;;;;;3.30;1.82;;;;;;;18.46;35.13;102098.23;1764491;79;21518;-61
2021/09/07 10:25:45;;;;;;;4.17;2.33;;;;;;;18.56;35.25;102094.70;1761102;79;21197;-60
2021/09/07 10:28:51;;;;;;;4.83;2.20;;;;;;;18.64;35.00;102099.66;1757568;80;21581;-66
2021/09/07 10:32:00;;;;;;;3.37;1.90;;;;;;;18.78;34.89;102093.28;1753038;80;21195;-61
2021/09/07 10:35:20;;;;;;;2.85;1.90;;;;;;;18.82;34.25;102098.78;1743829;82;22293;-61
2021/09/07 10:38:26;;;;;;;4.55;2.10;;;;;;;18.76;34.73;102099.55;1745844;82;21367;-61
2021/09/07 10:41:47;;;;;;;5.47;2.37;;;;;;;18.47;34.81;102099.44;1745451;82;21343;-62
2021/09/07 10:45:06;;;;;;;6.05;2.30;;;;;;;18.23;35.44;102104.28;1744925;81;21343;-61
2021/09/07 10:48:40;;;;;;;3.55;2.00;;;;;;;18.06;36.09;102100.73;1728934;83;21213;-62
2021/09/07 10:52:13;;;;;;;3.12;1.90;;;;;;;17.94;36.20;102093.89;1707545;82;21224;-60
2021/09/07 10:55:25;;;;;;;2.65;1.80;;;;;;;17.84;36.07;102093.25;1745885;80;21284;-58
2021/09/07 10:58:40;;;;;;;3.95;2.27;;;;;;;17.83;36.36;102084.61;1801159;79;21343;-59
2021/09/07 11:01:45;;;;;;;5.78;2.02;;;;;;;18.00;36.58;102086.23;1797373;79;21699;-59
2021/09/07 11:05:01;;;;;;;3.77;2.12;;;;;;;18.27;36.03;102084.31;1782811;80;21713;-59
2021/09/07 11:08:25;;;;;;;4.42;2.00;;;;;;;18.53;35.87;102089.52;1791113;78;21754;-59
2021/09/07 11:11:35;;;;;;;8.23;2.30;;;;;;;18.61;35.62;102080.62;1800013;79;21690;-59
2021/09/07 11:14:40;;;;;;;5.20;2.40;;;;;;;18.61;35.15;102085.30;1780657;79;21208;-60
2021/09/07 11:18:00;;;;;;;6.97;2.17;;;;;;;18.54;35.30;102086.56;1794688;79;21758;-58
2021/09/07 11:21:12;;;;;;;3.85;2.00;;;;;;;18.41;35.22;102077.99;1794572;79;21186;-61
2021/09/07 11:24:28;;;;;;;3.95;2.35;;;;;;;18.29;35.67;102075.30;1745949;79;21173;-59
2021/09/07 11:28:07;;;;;;;3.83;2.22;;;;;;;18.31;35.51;102073.72;1737161;81;21214;-59
2021/09/07 11:31:13;;;;;;;6.65;2.62;;;;;;;18.37;35.62;102071.08;1738409;81;21375;-58
2021/09/07 11:34:20;;;;;;;4.40;1.92;;;;;;;18.50;35.23;102074.64;1750107;81;21785;-59
2021/09/07 11:37:26;;;;;;;5.70;2.40;;;;;;;18.53;35.16;102069.59;1762552;80;21172;-57
2021/09/07 11:40:32;;;;;;;7.17;2.50;;;;;;;18.51;35.17;102074.97;1753724;81;21352;-58
2021/09/07 11:43:50;;;;;;;4.10;2.47;;;;;;;18.44;35.19;102069.30;1756441;80;21152;-59
2021/09/07 11:46:56;;;;;;;4.75;2.50;;;;;;;18.39;35.34;102066.25;1719349;82;21262;-60
2021/09/07 11:50:02;;;;;;;6.85;2.45;;;;;;;18.50;35.23;102053.84;1721561;82;21554;-59
2021/09/07 11:53:12;;;;;;;5.53;2.60;;;;;;;18.73;35.73;102054.65;1718936;82;21501;-59
2021/09/07 11:56:31;;;;;;;4.60;2.40;;;;;;;18.94;35.09;102056.17;1718622;81;21793;-57
2021/09/07 11:59:37;;;;;;;8.30;2.55;;;;;;;18.84;34.46;102059.22;1714662;82;21782;-58
2021/09/07 12:02:45;;;;;;;4.67;2.25;;;;;;;18.68;34.51;102052.99;1728873;80;21180;-57
2021/09/07 12:06:03;;;;;;;5.03;2.15;;;;;;;18.53;34.16;102048.78;1719916;82;21227;-57
2021/09/07 12:09:30;;;;;;;4.00;2.17;;;;;;;18.37;34.07;102040.57;1709542;83;21601;-57
2021/09/07 12:12:38;;;;;;;3.45;2.25;;;;;;;18.47;34.33;102041.19;1707576;83;21196;-58
2021/09/07 12:15:46;;;;;;;8.70;3.30;;;;;;;18.70;34.54;102033.70;1747256;80;21210;-58
2021/09/07 12:18:53;;;;;;;3.42;1.90;;;;;;;18.92;33.86;102036.06;1751882;80;21630;-58
2021/09/07 12:22:28;;;;;;;4.12;2.40;;;;;;;19.06;33.65;102036.08;1727191;82;21252;-59
2021/09/07 12:25:34;;;;;;;16.05;5.33;;;;;;;19.15;33.18;102027.98;1735160;79;21176;-58
2021/09/07 12:28:41;;;;;;;8.05;3.00;;;;;;;19.19;33.53;102022.40;1750513;81;21510;-58
2021/09/07 12:31:46;;;;;;;5.75;2.98;;;;;;;19.20;33.43;102023.27;1750051;82;21619;-57
2021/09/07 12:34:57;;;;;;;5.78;2.87;;;;;;;19.04;33.34;102029.01;1762671;81;21213;-56
2021/09/07 12:38:02;;;;;;;8.23;2.90;;;;;;;18.95;33.75;102018.52;1764335;81;21554;-56
2021/09/07 12:41:11;;;;;;;5.72;3.37;;;;;;;18.93;33.57;102016.44;1764313;80;21335;-57
2021/09/07 12:44:24;;;;;;;4.97;2.83;;;;;;;18.81;33.53;102019.88;1762558;80;21224;-58
2021/09/07 12:47:31;;;;;;;;;;;;;;;18.68;33.87;102012.21;1764819;81;21625;-58
2021/09/07 12:50:36;;;;;;;4.70;2.60;;;;;;;18.59;33.92;102016.64;1760381;80;20253;-58
2021/09/07 12:53:45;;;;;;;7.30;2.62;;;;;;;18.48;34.13;102014.32;1765197;81;21566;-57
2021/09/07 12:56:47;;;;;;;4.55;2.27;;;;;;;18.41;34.42;102005.05;1763906;80;21233;-61
2021/09/07 12:59:54;;;;;;;6.40;2.10;;;;;;;18.33;34.44;102003.15;1764562;80;21162;-60
2021/09/07 13:03:01;;;;;;;5.03;2.30;;;;;;;18.24;34.57;101994.58;1757822;81;21185;-59
2021/09/07 13:06:08;;;;;;;5.00;2.40;;;;;;;18.18;34.99;102000.00;1760015;81;21731;-60
2021/09/07 13:09:13;;;;;;;5.05;2.40;;;;;;;18.15;34.51;101999.86;1726738;80;21324;-61
2021/09/07 13:12:18;;;;;;;5.72;3.12;;;;;;;18.17;34.55;101995.52;1753876;81;21165;-60
2021/09/07 13:15:24;;;;;;;6.22;2.83;;;;;;;18.18;34.80;101991.69;1761902;80;21382;-59
2021/09/07 13:18:30;;;;;;;6.33;3.47;;;;;;;18.14;34.87;101987.58;1764886;81;21176;-60
2021/09/07 13:21:38;;;;;;;5.22;2.77;;;;;;;18.08;35.06;101986.39;1763435;81;21181;-59
2021/09/07 13:24:44;;;;;;;9.08;3.20;;;;;;;18.02;35.08;101982.11;1764697;81;21275;-60
2021/09/07 13:27:52;;;;;;;5.42;2.92;;;;;;;17.94;35.43;101984.42;1774661;79;22089;-60
2021/09/07 13:30:57;;;;;;;6.60;3.08;;;;;;;17.87;35.59;101985.69;1760298;79;21185;-61
2021/09/07 13:34:03;;;;;;;9.10;3.42;;;;;;;17.81;35.83;101984.17;1755486;80;21398;-61
2021/09/07 13:37:09;;;;;;;7.60;3.05;;;;;;;17.80;35.93;101983.84;1767175;80;21221;-60
2021/09/07 13:40:16;;;;;;;6.33;2.90;;;;;;;17.86;36.23;101975.66;1766466;80;21272;-61
2021/09/07 13:43:24;;;;;;;4.92;2.20;;;;;;;17.95;35.58;101972.28;1758755;81;21273;-60
2021/09/07 13:46:30;;;;;;;4.47;2.25;;;;;;;18.04;35.17;101969.81;1786712;79;21273;-59
2021/09/07 13:49:38;;;;;;;5.03;2.30;;;;;;;18.12;35.42;101975.28;1786418;78;21213;-58
2021/09/07 13:52:43;;;;;;;5.10;2.40;;;;;;;18.19;35.19;101969.86;1770890;79;21188;-59
2021/09/07 13:55:51;;;;;;;6.03;2.40;;;;;;;18.19;34.57;101965.16;1779969;79;21343;-59
2021/09/07 13:58:59;;;;;;;3.42;1.92;;;;;;;18.20;34.17;101961.36;1750872;79;21778;-60
2021/09/07 14:02:04;;;;;;;4.42;2.37;;;;;;;18.26;34.73;101961.12;1771894;80;21193;-59
2021/09/07 14:05:10;;;;;;;4.90;2.58;;;;;;;18.33;34.38;101954.63;1760907;79;22173;-59
2021/09/07 14:08:16;;;;;;;4.35;2.40;;;;;;;18.34;34.18;101951.34;1760196;79;21252;-60
2021/09/07 14:11:23;;;;;;;6.50;2.30;;;;;;;18.36;34.87;101947.31;1762329;81;21170;-62
2021/09/07 14:14:29;;;;;;;5.53;2.80;;;;;;;18.39;34.27;101951.67;1734776;81;21193;-62
2021/09/07 14:17:36;;;;;;;6.53;2.60;;;;;;;18.42;34.89;101949.39;1759810;81;21184;-61
2021/09/07 14:20:43;;;;;;;5.33;2.87;;;;;;;18.47;34.67;101948.27;1767789;79;21229;-61
2021/09/07 14:23:48;;;;;;;6.67;2.77;;;;;;;18.48;34.88;101945.85;1735886;81;21161;-59
2021/09/07 14:26:54;;;;;;;4.65;2.40;;;;;;;18.51;34.27;101950.14;1741380;80;21271;-58
2021/09/07 14:30:02;;;;;;;7.62;2.52;;;;;;;18.55;34.06;101945.96;1789084;79;21219;-58
2021/09/07 14:33:08;;;;;;;8.15;2.52;;;;;;;18.58;33.81;101943.67;1779620;79;21168;-57